메인 페이지
METAR-TAF:

METAR-TAF

공항 :

카이세리, 터키

위도: 38-47N, 경도: 035-29E, 고도: 1053m

현재 날씨관측

예보는 46분 전, 09:50시(UTC)에 발표되었습니다.
여러 방향의 바람 1kt
온도 1°C
습도 75%
기압 1018 hPa
시정 10km 이상
고도 3500ft 상공 구름 많음

METAR: LTAU 180950Z VRB01KT 9999 BKN035 01/M03 Q1018 NOSIG RMK RWY07 06004KT 010V120

시각: 13:36 (10:36 UTC)

예보

예보는 5 시간 56분 전, 04:40시(UTC)에 발표되었습니다.
예보 대상 시간: 18일 06시부터 19일 06시까지 (UTC)
여러 방향의 바람 2kt
시정: 8000m
고도 1000ft 상공 구름 보통
고도 2500ft 상공 구름 많음
전환 중
18일 07시부터 18일 10시까지 (UTC)
고도 3300ft 상공 구름 많음
확률 30% :
일시적
18일 13시부터 18일 17시까지 (UTC)
고도 2500ft 상공 구름 많음
고도 8000ft 상공 구름 많음
약한소낙눈

TAF: LTAU 180440Z 1806/1906 VRB02KT 8000 SCT010 BKN025 BECMG 1807/1810 BKN033 PROB30 TEMPO 1813/1817 -SHSN BKN025 BKN080

4,000개 이상의 공항 관측 자료 및 예보 (METAR 및 TAF 보고).

지도상에서 검색 가능한 기상관측소가 노란 점과 빨간 점으로 표시되어 있습니다.

기상관측소 명을 보려면 표시 위로 마우스를 이동하세요.

날씨 관측과 예보를 보려면 클릭하세요.

지도 변경 : 확대하려면 엑스 표시가 있는 녹색 버튼, 축소하려면 빼기 표시가 있는 녹색 버튼, 다음 페이지의 지도를 보려면 녹색 화살표를 클릭하세요.


METAR-TAF: